Observation data for Friona on 07/11/2020      Previous  Date  Next       Current Mesonet Observations  Soil Data  Daily Summary Page  Observations in Plain Language
KFAS 110500Z 16012KT 27/13 A3009 RMK A01 T02730131  RH  043%=      5-min Rain = 0
KFAS 110505Z 16013KT 27/13 A3009 RMK A01 T02740132  RH  043%=      5-min Rain = 0
KFAS 110510Z 16013KT 27/14 A3009 RMK A01 T02730136  RH  045%=      5-min Rain = 0
KFAS 110515Z 16013KT 27/14 A3009 RMK A01 T02730138  RH  045%=      5-min Rain = 0
KFAS 110520Z 16014KT 27/14 A3009 RMK A01 T02720141  RH  046%=      5-min Rain = 0
KFAS 110525Z 16014KT 27/14 A3009 RMK A01 T02730144  RH  047%=      5-min Rain = 0
KFAS 110530Z 16013G18KT 27/15 A301 RMK A01 T02720146  RH  048%=      5-min Rain = 0
KFAS 110535Z 16013KT 27/15 A301 RMK A01 T02710148  RH  049%=      5-min Rain = 0
KFAS 110540Z 16013KT 27/15 A301 RMK A01 T02710150  RH  050%=      5-min Rain = 0
KFAS 110545Z 16014KT 27/15 A301 RMK A01 T02710151  RH  050%=      5-min Rain = 0
KFAS 110550Z 16013KT 27/15 A301 RMK A01 T02710152  RH  050%=      5-min Rain = 0
KFAS 110555Z 16014KT 27/15 A301 RMK A01 T02710153  RH  051%=      5-min Rain = 0
KFAS 110600Z 16014KT 27/15 A301 RMK A01 T02700154  RH  051%=      5-min Rain = 0
KFAS 110605Z 16014KT 27/15 A301 RMK A01 T02690154  RH  052%=      5-min Rain = 0
KFAS 110610Z 17013KT 27/16 A301 RMK A01 T02690155  RH  052%=      5-min Rain = 0
KFAS 110615Z 17013KT 27/16 A301 RMK A01 T02670155  RH  053%=      5-min Rain = 0
KFAS 110620Z 17012KT 27/16 A301 RMK A01 T02660155  RH  053%=      5-min Rain = 0
KFAS 110625Z 17012KT 26/16 A301 RMK A01 T02630155  RH  054%=      5-min Rain = 0
KFAS 110630Z 17012KT 26/16 A301 RMK A01 T02610155  RH  054%=      5-min Rain = 0
KFAS 110635Z 17011KT 26/16 A301 RMK A01 T02590155  RH  055%=      5-min Rain = 0
KFAS 110640Z 18011KT 26/15 A301 RMK A01 T02580154  RH  055%=      5-min Rain = 0
KFAS 110645Z 17011KT 26/15 A301 RMK A01 T02580153  RH  055%=      5-min Rain = 0
KFAS 110650Z 18012KT 26/15 A3009 RMK A01 T02580151  RH  054%=      5-min Rain = 0
KFAS 110655Z 18012KT 26/15 A3009 RMK A01 T02590149  RH  053%=      5-min Rain = 0
KFAS 110700Z 17012KT 26/15 A3009 RMK A01 T02600148  RH  052%=      5-min Rain = 0
KFAS 110705Z 17011KT 26/15 A3009 RMK A01 T02590147  RH  052%=      5-min Rain = 0
KFAS 110710Z 17011KT 26/15 A3009 RMK A01 T02570146  RH  053%=      5-min Rain = 0
KFAS 110715Z 18010KT 26/15 A3009 RMK A01 T02570146  RH  052%=      5-min Rain = 0
KFAS 110720Z 18010KT 26/15 A301 RMK A01 T02560146  RH  053%=      5-min Rain = 0
KFAS 110725Z 18011KT 26/15 A301 RMK A01 T02550146  RH  053%=      5-min Rain = 0
KFAS 110730Z 18009KT 25/15 A301 RMK A01 T02530146  RH  054%=      5-min Rain = 0
KFAS 110735Z 19010KT 25/15 A301 RMK A01 T02510146  RH  055%=      5-min Rain = 0
KFAS 110740Z 19010KT 25/15 A301 RMK A01 T02490146  RH  055%=      5-min Rain = 0
KFAS 110745Z 19009KT 25/15 A301 RMK A01 T02470146  RH  056%=      5-min Rain = 0
KFAS 110750Z 19009KT 25/15 A301 RMK A01 T02460146  RH  056%=      5-min Rain = 0
KFAS 110755Z 19008KT 25/15 A301 RMK A01 T02450147  RH  057%=      5-min Rain = 0
KFAS 110800Z 19008KT 24/15 A301 RMK A01 T02430147  RH  057%=      5-min Rain = 0
KFAS 110805Z 19008KT 24/15 A301 RMK A01 T02420147  RH  058%=      5-min Rain = 0
KFAS 110810Z 19008KT 24/15 A301 RMK A01 T02420147  RH  058%=      5-min Rain = 0
KFAS 110815Z 19008KT 24/15 A301 RMK A01 T02410147  RH  058%=      5-min Rain = 0
KFAS 110820Z 19008KT 24/15 A301 RMK A01 T02410147  RH  058%=      5-min Rain = 0
KFAS 110825Z 19008KT 24/15 A301 RMK A01 T02390147  RH  059%=      5-min Rain = 0
KFAS 110830Z 19008KT 24/15 A301 RMK A01 T02380148  RH  060%=      5-min Rain = 0
KFAS 110835Z 19007KT 24/15 A301 RMK A01 T02380148  RH  060%=      5-min Rain = 0
KFAS 110840Z 18007KT 24/15 A301 RMK A01 T02360148  RH  060%=      5-min Rain = 0
KFAS 110845Z 18007KT 23/15 A301 RMK A01 T02340149  RH  061%=      5-min Rain = 0
KFAS 110850Z 18006KT 23/15 A301 RMK A01 T02310149  RH  062%=      5-min Rain = 0
KFAS 110855Z 18007KT 23/15 A3011 RMK A01 T02310148  RH  062%=      5-min Rain = 0
KFAS 110900Z 18006KT 23/15 A3011 RMK A01 T02290148  RH  063%=      5-min Rain = 0
KFAS 110905Z 18006KT 23/15 A3011 RMK A01 T02260147  RH  064%=      5-min Rain = 0
KFAS 110910Z 18005KT 22/15 A3011 RMK A01 T02230146  RH  065%=      5-min Rain = 0
KFAS 110915Z 17006KT 22/15 A3011 RMK A01 T02200146  RH  066%=      5-min Rain = 0
KFAS 110920Z 17006KT 22/15 A3011 RMK A01 T02170145  RH  067%=      5-min Rain = 0
KFAS 110925Z 18005KT 21/15 A3011 RMK A01 T02130145  RH  068%=      5-min Rain = 0
KFAS 110930Z 18004KT 21/15 A3011 RMK A01 T02120145  RH  069%=      5-min Rain = 0
KFAS 110935Z 17005KT 21/15 A3011 RMK A01 T02110145  RH  069%=      5-min Rain = 0
KFAS 110940Z 17007KT 21/15 A3011 RMK A01 T02100146  RH  070%=      5-min Rain = 0
KFAS 110945Z 17008KT 21/15 A3011 RMK A01 T02110147  RH  070%=      5-min Rain = 0
KFAS 110950Z 17008KT 21/15 A3011 RMK A01 T02120148  RH  070%=      5-min Rain = 0
KFAS 110955Z 17008KT 21/15 A3011 RMK A01 T02130148  RH  069%=      5-min Rain = 0
KFAS 111000Z 18008KT 21/15 A3011 RMK A01 T02130149  RH  069%=      5-min Rain = 0
KFAS 111005Z 18007KT 21/15 A301 RMK A01 T02130148  RH  069%=      5-min Rain = 0
KFAS 111010Z 18006KT 21/15 A301 RMK A01 T02120147  RH  069%=      5-min Rain = 0
KFAS 111015Z 19006KT 21/15 A301 RMK A01 T02120147  RH  069%=      5-min Rain = 0
KFAS 111020Z 20006KT 21/15 A3011 RMK A01 T02120148  RH  070%=      5-min Rain = 0
KFAS 111025Z 21006KT 21/15 A3011 RMK A01 T02100145  RH  070%=      5-min Rain = 0
KFAS 111030Z 20007KT 21/14 A3011 RMK A01 T02070144  RH  071%=      5-min Rain = 0
KFAS 111035Z 19008KT 21/14 A3011 RMK A01 T02050144  RH  071%=      5-min Rain = 0
KFAS 111040Z 19007KT 21/15 A301 RMK A01 T02060145  RH  071%=      5-min Rain = 0
KFAS 111045Z 18007KT 21/15 A301 RMK A01 T02070145  RH  071%=      5-min Rain = 0
KFAS 111050Z 20006KT 21/15 A3011 RMK A01 T02070145  RH  070%=      5-min Rain = 0
KFAS 111055Z 20006KT 20/14 A3011 RMK A01 T02040142  RH  070%=      5-min Rain = 0
KFAS 111100Z 21006KT 20/14 A3011 RMK A01 T02040140  RH  070%=      5-min Rain = 0
KFAS 111105Z 20006KT 21/14 A3011 RMK A01 T02050139  RH  069%=      5-min Rain = 0
KFAS 111110Z 20007KT 21/14 A3011 RMK A01 T02050137  RH  068%=      5-min Rain = 0
KFAS 111115Z 21008KT 21/14 A3011 RMK A01 T02050137  RH  067%=      5-min Rain = 0
KFAS 111120Z 21009KT 21/14 A3012 RMK A01 T02060137  RH  067%=      5-min Rain = 0
KFAS 111125Z 21010KT 22/14 A3012 RMK A01 T02150138  RH  064%=      5-min Rain = 0
KFAS 111130Z 20010KT 22/14 A3012 RMK A01 T02210138  RH  062%=      5-min Rain = 0
KFAS 111135Z 20010KT 22/14 A3012 RMK A01 T02220138  RH  061%=      5-min Rain = 0
KFAS 111140Z 20011KT 22/14 A3012 RMK A01 T02210138  RH  062%=      5-min Rain = 0
KFAS 111145Z 20010KT 22/14 A3012 RMK A01 T02200138  RH  062%=      5-min Rain = 0
KFAS 111150Z 20010KT 22/14 A3012 RMK A01 T02180138  RH  063%=      5-min Rain = 0
KFAS 111155Z 21010KT 22/14 A3012 RMK A01 T02180138  RH  063%=      5-min Rain = 0
KFAS 111200Z 21009KT 22/14 A3012 RMK A01 T02210139  RH  062%=      5-min Rain = 0
KFAS 111205Z 22008KT 22/14 A3013 RMK A01 T02230139  RH  061%=      5-min Rain = 0
KFAS 111210Z 23007KT 22/14 A3013 RMK A01 T02240140  RH  061%=      5-min Rain = 0
KFAS 111215Z 25007KT 23/14 A3013 RMK A01 T02260142  RH  062%=      5-min Rain = 0
KFAS 111220Z 24005KT 23/14 A3013 RMK A01 T02280143  RH  061%=      5-min Rain = 0
KFAS 111225Z 23006KT 23/14 A3013 RMK A01 T02270143  RH  061%=      5-min Rain = 0
KFAS 111230Z 21008KT 23/14 A3013 RMK A01 T02300142  RH  060%=      5-min Rain = 0
KFAS 111235Z 21009KT 23/14 A3013 RMK A01 T02340143  RH  059%=      5-min Rain = 0
KFAS 111240Z 22008KT 24/14 A3013 RMK A01 T02370144  RH  058%=      5-min Rain = 0
KFAS 111245Z 22007KT 24/14 A3013 RMK A01 T02390144  RH  057%=      5-min Rain = 0
KFAS 111250Z 22008KT 24/14 A3014 RMK A01 T02430144  RH  057%=      5-min Rain = 0
KFAS 111255Z 22009KT 25/14 A3014 RMK A01 T02460144  RH  055%=      5-min Rain = 0
KFAS 111300Z 22009KT 25/14 A3014 RMK A01 T02470144  RH  055%=      5-min Rain = 0
KFAS 111305Z 21008KT 25/15 A3014 RMK A01 T02480145  RH  055%=      5-min Rain = 0
KFAS 111310Z 21008KT 25/15 A3014 RMK A01 T02510145  RH  054%=      5-min Rain = 0
KFAS 111315Z 21006KT 25/15 A3014 RMK A01 T02530145  RH  054%=      5-min Rain = 0
KFAS 111320Z 22007KT 26/15 A3014 RMK A01 T02580146  RH  052%=      5-min Rain = 0
KFAS 111325Z 22007KT 26/15 A3014 RMK A01 T02630146  RH  051%=      5-min Rain = 0
KFAS 111330Z 21009KT 27/15 A3014 RMK A01 T02670147  RH  050%=      5-min Rain = 0
KFAS 111335Z 20008KT 27/15 A3014 RMK A01 T02660147  RH  050%=      5-min Rain = 0
KFAS 111340Z 20009KT 26/15 A3014 RMK A01 T02600146  RH  052%=      5-min Rain = 0
KFAS 111345Z 20010KT 26/15 A3014 RMK A01 T02570146  RH  053%=      5-min Rain = 0
KFAS 111350Z 21010G15KT 26/15 A3014 RMK A01 T02570146  RH  053%=      5-min Rain = 0
KFAS 111355Z 21012KT 27/15 A3014 RMK A01 T02660146  RH  050%=      5-min Rain = 0
KFAS 111400Z 20010KT 27/15 A3014 RMK A01 T02710147  RH  049%=      5-min Rain = 0
KFAS 111405Z 20011KT 27/15 A3014 RMK A01 T02700148  RH  049%=      5-min Rain = 0
KFAS 111410Z 21012KT 27/15 A3014 RMK A01 T02740146  RH  047%=      5-min Rain = 0
KFAS 111415Z 21011KT 28/15 A3014 RMK A01 T02770146  RH  047%=      5-min Rain = 0
KFAS 111420Z 21012KT 28/15 A3014 RMK A01 T02820145  RH  045%=      5-min Rain = 0
KFAS 111425Z 22013KT 29/15 A3014 RMK A01 T02920145  RH  043%=      5-min Rain = 0
KFAS 111430Z 22012KT 30/14 A3014 RMK A01 T03030143  RH  039%=      5-min Rain = 0
KFAS 111435Z 23011KT 30/14 A3014 RMK A01 T02990140  RH  039%=      5-min Rain = 0
KFAS 111440Z 22010KT 30/14 A3014 RMK A01 T03010140  RH  039%=      5-min Rain = 0
KFAS 111445Z 22011KT 31/14 A3014 RMK A01 T03060137  RH  037%=      5-min Rain = 0
KFAS 111450Z 22012G17KT 31/14 A3014 RMK A01 T03120137  RH  036%=      5-min Rain = 0
KFAS 111455Z 22013KT 33/14 A3014 RMK A01 T03250136  RH  033%=      5-min Rain = 0
KFAS 111500Z 21014KT 33/14 A3013 RMK A01 T03280136  RH  033%=      5-min Rain = 0
KFAS 111505Z 21015KT 33/14 A3013 RMK A01 T03310135  RH  032%=      5-min Rain = 0
KFAS 111510Z 22016KT 33/13 A3013 RMK A01 T03330131  RH  031%=      5-min Rain = 0
KFAS 111515Z 22014KT 34/13 A3013 RMK A01 T03350132  RH  030%=      5-min Rain = 0
KFAS 111520Z 23014KT 34/13 A3013 RMK A01 T03390129  RH  029%=      5-min Rain = 0
KFAS 111525Z 23014KT 34/13 A3013 RMK A01 T03440126  RH  028%=      5-min Rain = 0
KFAS 111530Z 23014KT 35/13 A3013 RMK A01 T03470125  RH  027%=      5-min Rain = 0
KFAS 111535Z 23015KT 35/12 A3013 RMK A01 T03490124  RH  027%=      5-min Rain = 0
KFAS 111540Z 22013KT 35/13 A3013 RMK A01 T03490125  RH  027%=      5-min Rain = 0
KFAS 111545Z 22014G19KT 36/12 A3013 RMK A01 T03550120  RH  025%=      5-min Rain = 0
KFAS 111550Z 22015KT 36/12 A3013 RMK A01 T03560117  RH  025%=      5-min Rain = 0
KFAS 111555Z 22013KT 36/12 A3013 RMK A01 T03600117  RH  024%=      5-min Rain = 0
KFAS 111600Z 22014G19KT 37/12 A3013 RMK A01 T03650116  RH  023%=      5-min Rain = 0
KFAS 111605Z 23014KT 37/11 A3013 RMK A01 T03670107  RH  022%=      5-min Rain = 0
KFAS 111610Z 22016KT 37/10 A3013 RMK A01 T03710099  RH  020%=      5-min Rain = 0
KFAS 111615Z 23015G21KT 38/09 A3013 RMK A01 T03760088  RH  018%=      5-min Rain = 0
KFAS 111620Z 23016KT 38/09 A3012 RMK A01 T03800086  RH  017%=      5-min Rain = 0
KFAS 111625Z 22016KT 38/08 A3012 RMK A01 T03820084  RH  017%=      5-min Rain = 0
KFAS 111630Z 23015G21KT 39/09 A3013 RMK A01 T03850090  RH  017%=      5-min Rain = 0
KFAS 111635Z 22013KT 39/09 A3012 RMK A01 T03870093  RH  018%=      5-min Rain = 0
KFAS 111640Z 22016G21KT 39/09 A3012 RMK A01 T03880086  RH  017%=      5-min Rain = 0
KFAS 111645Z 22017G22KT 39/07 A3012 RMK A01 T03890071  RH  015%=      5-min Rain = 0
KFAS 111650Z 22016G22KT 39/07 A3012 RMK A01 T03890068  RH  015%=      5-min Rain = 0
KFAS 111655Z 23017G23KT 39/07 A3012 RMK A01 T03880068  RH  015%=      5-min Rain = 0
KFAS 111700Z 23016G24KT 39/07 A3012 RMK A01 T03910068  RH  014%=      5-min Rain = 0
KFAS 111705Z 22018G24KT 39/06 A3012 RMK A01 T03940062  RH  014%=      5-min Rain = 0
KFAS 111710Z 22018G23KT 40/05 A3012 RMK A01 T03950052  RH  013%=      5-min Rain = 0
KFAS 111715Z 21016G22KT 40/06 A3012 RMK A01 T03950060  RH  013%=      5-min Rain = 0
KFAS 111720Z 21017G24KT 40/05 A3012 RMK A01 T03970054  RH  013%=      5-min Rain = 0
KFAS 111725Z 22020G28KT 40/05 A3012 RMK A01 T03960052  RH  012%=      5-min Rain = 0
KFAS 111730Z 24017G26KT 39/06 A3012 RMK A01 T03940055  RH  013%=      5-min Rain = 0
KFAS 111735Z 23017G23KT 40/06 A3012 RMK A01 T03970060  RH  013%=      5-min Rain = 0
KFAS 111740Z 21015G22KT 40/07 A3012 RMK A01 T03970065  RH  014%=      5-min Rain = 0
KFAS 111745Z 21015G22KT 40/07 A3012 RMK A01 T04040068  RH  013%=      5-min Rain = 0
KFAS 111750Z 21016G22KT 40/06 A3012 RMK A01 T04020064  RH  013%=      5-min Rain = 0
KFAS 111755Z 23017G22KT 40/06 A3012 RMK A01 T04010063  RH  013%=      5-min Rain = 0
KFAS 111800Z 23013G20KT 40/06 A3012 RMK A01 T03990062  RH  013%=      5-min Rain = 0
KFAS 111805Z 20015G22KT 40/06 A3012 RMK A01 T04020063  RH  013%=      5-min Rain = 0
KFAS 111810Z 23015G20KT 40/07 A3012 RMK A01 T04010065  RH  013%=      5-min Rain = 0
KFAS 111815Z 23014KT 40/06 A3011 RMK A01 T04020061  RH  013%=      5-min Rain = 0
KFAS 111820Z 22014G23KT 41/05 A3011 RMK A01 T04080054  RH  012%=      5-min Rain = 0
KFAS 111825Z 20016G21KT 41/05 A3011 RMK A01 T04050047  RH  011%=      5-min Rain = 0
KFAS 111830Z 21013G18KT 41/05 A3011 RMK A01 T04070048  RH  012%=      5-min Rain = 0
KFAS 111835Z 23016KT 41/05 A3011 RMK A01 T04100049  RH  011%=      5-min Rain = 0
KFAS 111840Z 22016G21KT 41/04 A3011 RMK A01 T04070042  RH  011%=      5-min Rain = 0
KFAS 111845Z 21013G20KT 41/04 A3011 RMK A01 T04070038  RH  011%=      5-min Rain = 0
KFAS 111850Z 19013G18KT 41/04 A301 RMK A01 T04100039  RH  011%=      5-min Rain = 0
KFAS 111855Z 22014G21KT 41/04 A301 RMK A01 T04110040  RH  011%=      5-min Rain = 0
KFAS 111900Z 23014G27KT 41/04 A301 RMK A01 T04130040  RH  011%=      5-min Rain = 0
KFAS 111905Z 23011G19KT 41/04 A301 RMK A01 T04090039  RH  011%=      5-min Rain = 0
KFAS 111910Z 22015G20KT 41/04 A301 RMK A01 T04140040  RH  010%=      5-min Rain = 0
KFAS 111915Z 22014G20KT 41/03 A3009 RMK A01 T04110034  RH  010%=      5-min Rain = 0
KFAS 111920Z 20010KT 41/04 A3009 RMK A01 T04120039  RH  010%=      5-min Rain = 0
KFAS 111925Z 22012G18KT 41/03 A3009 RMK A01 T04110034  RH  010%=      5-min Rain = 0
KFAS 111930Z 24013G19KT 42/04 A3009 RMK A01 T04170038  RH  010%=      5-min Rain = 0
KFAS 111935Z 21015G22KT 42/03 A3009 RMK A01 T04170033  RH  010%=      5-min Rain = 0
KFAS 111940Z 21013G19KT 42/03 A3009 RMK A01 T04160033  RH  010%=      5-min Rain = 0
KFAS 111945Z 19007G16KT 41/03 A3008 RMK A01 T04120027  RH  010%=      5-min Rain = 0
KFAS 111950Z 20011G21KT 41/03 A3008 RMK A01 T04140034  RH  010%=      5-min Rain = 0
KFAS 111955Z 20011G19KT 42/04 A3008 RMK A01 T04150036  RH  010%=      5-min Rain = 0
KFAS 112000Z 23010G18KT 42/04 A3008 RMK A01 T04180036  RH  010%=      5-min Rain = 0
KFAS 112005Z 24013G20KT 42/04 A3008 RMK A01 T04190036  RH  010%=      5-min Rain = 0
KFAS 112010Z 25013G20KT 42/04 A3008 RMK A01 T04180037  RH  010%=      5-min Rain = 0
KFAS 112015Z 24010KT 42/03 A3008 RMK A01 T04160032  RH  010%=      5-min Rain = 0
KFAS 112020Z 24008G13KT 41/03 A3008 RMK A01 T04130032  RH  010%=      5-min Rain = 0
KFAS 112025Z 23005G11KT 41/03 A3007 RMK A01 T04060029  RH  010%=      5-min Rain = 0
KFAS 112030Z 20014KT 40/03 A3007 RMK A01 T04040034  RH  011%=      5-min Rain = 0
KFAS 112035Z 19011KT 40/04 A3007 RMK A01 T04000035  RH  011%=      5-min Rain = 0
KFAS 112040Z 21009G14KT 41/03 A3007 RMK A01 T04100033  RH  010%=      5-min Rain = 0
KFAS 112045Z 21013KT 40/03 A3006 RMK A01 T04040030  RH  010%=      5-min Rain = 0
KFAS 112050Z 21008G15KT 41/04 A3006 RMK A01 T04140037  RH  010%=      5-min Rain = 0
KFAS 112055Z 19014G19KT 42/04 A3005 RMK A01 T04210043  RH  010%=      5-min Rain = 0
KFAS 112100Z 21010G15KT 42/04 A3005 RMK A01 T04150040  RH  010%=      5-min Rain = 0
KFAS 112105Z 20010G16KT 41/04 A3005 RMK A01 T04120038  RH  010%=      5-min Rain = 0
KFAS 112110Z 24010G17KT 42/04 A3005 RMK A01 T04160035  RH  010%=      5-min Rain = 0
KFAS 112115Z 25007G18KT 42/04 A3005 RMK A01 T04190041  RH  010%=      5-min Rain = 0
KFAS 112120Z 27012KT 42/04 A3005 RMK A01 T04210039  RH  010%=      5-min Rain = 0
KFAS 112125Z 27010KT 42/03 A3005 RMK A01 T04220029  RH  009%=      5-min Rain = 0
KFAS 112130Z 23010G16KT 42/04 A3005 RMK A01 T04240035  RH  010%=      5-min Rain = 0
KFAS 112135Z 29008G13KT 42/04 A3004 RMK A01 T04190038  RH  010%=      5-min Rain = 0
KFAS 112140Z 26006G14KT 41/04 A3004 RMK A01 T04100035  RH  010%=      5-min Rain = 0
KFAS 112145Z 24010G17KT 42/03 A3004 RMK A01 T04180034  RH  010%=      5-min Rain = 0
KFAS 112150Z 27011KT 42/03 A3004 RMK A01 T04220031  RH  009%=      5-min Rain = 0
KFAS 112155Z 26011G20KT 42/03 A3003 RMK A01 T04220029  RH  009%=      5-min Rain = 0
KFAS 112200Z 26009G14KT 42/03 A3004 RMK A01 T04230031  RH  009%=      5-min Rain = 0
KFAS 112205Z 25005G11KT 42/02 A3003 RMK A01 T04240024  RH  009%=      5-min Rain = 0
KFAS 112210Z 24008G14KT 42/03 A3003 RMK A01 T04210027  RH  009%=      5-min Rain = 0
KFAS 112215Z 23009G14KT 41/03 A3003 RMK A01 T04120027  RH  010%=      5-min Rain = 0
KFAS 112220Z 24011KT 41/03 A3003 RMK A01 T04140028  RH  010%=      5-min Rain = 0
KFAS 112225Z 24010G15KT 42/03 A3003 RMK A01 T04200032  RH  010%=      5-min Rain = 0
KFAS 112230Z 24007G12KT 42/03 A3003 RMK A01 T04190032  RH  010%=      5-min Rain = 0
KFAS 112235Z 22007KT 42/03 A3002 RMK A01 T04190031  RH  010%=      5-min Rain = 0
KFAS 112240Z 20006KT 42/04 A3002 RMK A01 T04190035  RH  010%=      5-min Rain = 0
KFAS 112245Z 28008KT 42/03 A3002 RMK A01 T04210028  RH  009%=      5-min Rain = 0
KFAS 112250Z 29005KT 42/03 A3002 RMK A01 T04210027  RH  009%=      5-min Rain = 0
KFAS 112255Z 25008KT 43/02 A3001 RMK A01 T04250017  RH  008%=      5-min Rain = 0
KFAS 112300Z 29006G11KT 42/01 A3001 RMK A01 T04210013  RH  008%=      5-min Rain = 0
KFAS 112305Z 27009KT 42/01 A3001 RMK A01 T04170013  RH  008%=      5-min Rain = 0
KFAS 112310Z 27008G16KT 42/02 A3001 RMK A01 T04190020  RH  009%=      5-min Rain = 0
KFAS 112315Z 27007G13KT 42/02 A3001 RMK A01 T04210019  RH  009%=      5-min Rain = 0
KFAS 112320Z 25006G11KT 42/02 A3001 RMK A01 T04220015  RH  008%=      5-min Rain = 0
KFAS 112325Z 26006G13KT 42/02 A30 RMK A01 T04180015  RH  009%=      5-min Rain = 0
KFAS 112330Z 21004KT 42/01 A30 RMK A01 T04170009  RH  008%=      5-min Rain = 0
KFAS 112335Z 26004KT 42/01 A30 RMK A01 T04180011  RH  008%=      5-min Rain = 0
KFAS 112340Z 27010KT 42/02 A30 RMK A01 T04170021  RH  009%=      5-min Rain = 0
KFAS 112345Z 29007KT 42/02 A30 RMK A01 T04160017  RH  009%=      5-min Rain = 0
KFAS 112350Z 30005KT 42/02 A30 RMK A01 T04150020  RH  009%=      5-min Rain = 0
KFAS 112355Z 27006G12KT 42/03 A30 RMK A01 T04160025  RH  009%=      5-min Rain = 0
KFAS 120000Z 26008KT 41/02 A3001 RMK A01 T04130019  RH  009%=      5-min Rain = 0
KFAS 120005Z 29004KT 41/02 A3001 RMK A01 T04120017  RH  009%=      5-min Rain = 0
KFAS 120010Z 32004KT 41/02 A3001 RMK A01 T04130021  RH  009%=      5-min Rain = 0
KFAS 120015Z 26006KT 41/02 A3001 RMK A01 T04120022  RH  009%=      5-min Rain = 0
KFAS 120020Z 26007KT 41/03 A3001 RMK A01 T04090032  RH  010%=      5-min Rain = 0
KFAS 120025Z 27005KT 41/03 A3001 RMK A01 T04080033  RH  010%=      5-min Rain = 0
KFAS 120030Z 28006KT 41/03 A3001 RMK A01 T04080027  RH  010%=      5-min Rain = 0
KFAS 120035Z 29006KT 41/03 A3001 RMK A01 T04060028  RH  010%=      5-min Rain = 0
KFAS 120040Z 27005KT 41/03 A3001 RMK A01 T04050027  RH  010%=      5-min Rain = 0
KFAS 120045Z 25003KT 41/02 A3001 RMK A01 T04060024  RH  010%=      5-min Rain = 0
KFAS 120050Z 28002KT 41/03 A3001 RMK A01 T04080028  RH  010%=      5-min Rain = 0
KFAS 120055Z 28003KT 40/03 A3001 RMK A01 T03990030  RH  011%=      5-min Rain = 0
KFAS 120100Z 27002KT 39/03 A3001 RMK A01 T03900032  RH  011%=      5-min Rain = 0
KFAS 120105Z 25002KT 39/04 A3001 RMK A01 T03850038  RH  012%=      5-min Rain = 0
KFAS 120110Z 24004KT 38/04 A3001 RMK A01 T03770040  RH  013%=      5-min Rain = 0
KFAS 120115Z 24005KT 37/06 A3001 RMK A01 T03650062  RH  016%=      5-min Rain = 0
KFAS 120120Z 24006KT 36/06 A3001 RMK A01 T03550055  RH  016%=      5-min Rain = 0
KFAS 120125Z 22006KT 35/05 A3001 RMK A01 T03470049  RH  016%=      5-min Rain = 0
KFAS 120130Z 19007KT 34/04 A3001 RMK A01 T03400040  RH  016%=      5-min Rain = 0
KFAS 120135Z 19005KT 35/04 A3001 RMK A01 T03450044  RH  016%=      5-min Rain = 0
KFAS 120140Z 20008KT 35/05 A3002 RMK A01 T03450047  RH  016%=      5-min Rain = 0
KFAS 120145Z 19009KT 35/05 A3002 RMK A01 T03450050  RH  016%=      5-min Rain = 0
KFAS 120150Z 20010KT 35/05 A3002 RMK A01 T03470048  RH  016%=      5-min Rain = 0
KFAS 120155Z 20010KT 35/05 A3002 RMK A01 T03460050  RH  016%=      5-min Rain = 0
KFAS 120200Z 20010KT 34/05 A3002 RMK A01 T03440051  RH  016%=      5-min Rain = 0
KFAS 120205Z 20009KT 34/05 A3002 RMK A01 T03420052  RH  017%=      5-min Rain = 0
KFAS 120210Z 20010KT 34/05 A3002 RMK A01 T03390053  RH  017%=      5-min Rain = 0
KFAS 120215Z 20009KT 34/05 A3003 RMK A01 T03390054  RH  017%=      5-min Rain = 0
KFAS 120220Z 21009KT 34/06 A3003 RMK A01 T03350057  RH  018%=      5-min Rain = 0
KFAS 120225Z 21009KT 33/06 A3003 RMK A01 T03330056  RH  018%=      5-min Rain = 0
KFAS 120230Z 21008KT 33/06 A3004 RMK A01 T03340056  RH  018%=      5-min Rain = 0
KFAS 120235Z 25006KT 33/06 A3005 RMK A01 T03340058  RH  018%=      5-min Rain = 0
KFAS 120240Z 33008KT 33/06 A3006 RMK A01 T03310062  RH  019%=      5-min Rain = 0
KFAS 120245Z 01004KT 33/06 A3007 RMK A01 T03270062  RH  020%=      5-min Rain = 0
KFAS 120250Z 01013G19KT 34/09 A3007 RMK A01 T03360092  RH  023%=      5-min Rain = 0
KFAS 120255Z 01021G28KT 35/12 A3007 RMK A01 T03450115  RH  026%=      5-min Rain = 0
KFAS 120300Z 01021KT 34/12 A3008 RMK A01 T03440120  RH  027%=      5-min Rain = 0
KFAS 120305Z 36018G24KT 34/12 A3009 RMK A01 T03400121  RH  028%=      5-min Rain = 0
KFAS 120310Z 35025G33KT 34/12 A301 RMK A01 T03350119  RH  028%=      5-min Rain = 0
KFAS 120315Z 35025G32KT 32/09 A301 RMK A01 T03200093  RH  025%=      5-min Rain = 0
KFAS 120320Z 34024G32KT 32/09 A3011 RMK A01 T03150090  RH  026%=      5-min Rain = 0
KFAS 120325Z 35020KT 31/09 A3012 RMK A01 T03100087  RH  026%=      5-min Rain = 0
KFAS 120330Z 35018KT 31/08 A3013 RMK A01 T03090084  RH  025%=      5-min Rain = 0
KFAS 120335Z 00017KT 31/08 A3013 RMK A01 T03080083  RH  025%=      5-min Rain = 0
KFAS 120340Z 01014KT 31/08 A3013 RMK A01 T03050083  RH  026%=      5-min Rain = 0
KFAS 120345Z 01014KT 30/09 A3012 RMK A01 T03000085  RH  027%=      5-min Rain = 0
KFAS 120350Z 36010KT 30/09 A3013 RMK A01 T02970085  RH  027%=      5-min Rain = 0
KFAS 120355Z 36009KT 30/09 A3013 RMK A01 T02960085  RH  028%=      5-min Rain = 0
KFAS 120400Z 35008KT 30/08 A3013 RMK A01 T02970082  RH  027%=      5-min Rain = 0
KFAS 120405Z 35007KT 30/09 A3013 RMK A01 T02960085  RH  028%=      5-min Rain = 0
KFAS 120410Z 34009KT 29/09 A3014 RMK A01 T02910087  RH  029%=      5-min Rain = 0
KFAS 120415Z 35008KT 29/09 A3013 RMK A01 T02880087  RH  029%=      5-min Rain = 0
KFAS 120420Z 01008KT 29/09 A3013 RMK A01 T02870088  RH  030%=      5-min Rain = 0
KFAS 120425Z 02008KT 28/09 A3013 RMK A01 T02840089  RH  030%=      5-min Rain = 0
KFAS 120430Z 02007KT 29/09 A3013 RMK A01 T02860086  RH  030%=      5-min Rain = 0
KFAS 120435Z 06006KT 28/09 A3013 RMK A01 T02830091  RH  031%=      5-min Rain = 0
KFAS 120440Z 06011KT 28/09 A3012 RMK A01 T02790089  RH  031%=      5-min Rain = 0
KFAS 120445Z 08011KT 28/09 A3012 RMK A01 T02790089  RH  031%=      5-min Rain = 0
KFAS 120450Z 10011KT 28/09 A3011 RMK A01 T02800091  RH  032%=      5-min Rain = 0
KFAS 120455Z 08011KT 28/09 A3011 RMK A01 T02800093  RH  032%=      5-min Rain = 0

Page generated in 0.0096 seconds.